createdAt,value
2023-06-04T00:00:52.016Z,13.76
2023-06-04T00:01:51.997Z,13.72
2023-06-04T00:02:52.031Z,13.72
2023-06-04T00:03:52.063Z,13.66
2023-06-04T00:04:51.992Z,13.63
2023-06-04T00:05:51.969Z,13.57
2023-06-04T00:06:51.938Z,13.51
2023-06-04T00:07:51.918Z,13.48
2023-06-04T00:08:51.929Z,13.44
2023-06-04T00:09:51.920Z,13.46
2023-06-04T00:10:51.908Z,13.46
2023-06-04T00:11:51.977Z,13.47
2023-06-04T00:12:51.867Z,13.47
2023-06-04T00:13:51.873Z,13.51
2023-06-04T00:14:51.844Z,13.51
2023-06-04T00:15:51.869Z,13.54
2023-06-04T00:16:51.929Z,13.54
2023-06-04T00:17:51.860Z,13.55
2023-06-04T00:18:51.793Z,13.53
2023-06-04T00:19:51.785Z,13.53
2023-06-04T00:20:51.764Z,13.48
2023-06-04T00:21:51.755Z,13.43
2023-06-04T00:22:51.762Z,13.38
2023-06-04T00:23:51.771Z,13.39
2023-06-04T00:24:51.720Z,13.36
2023-06-04T00:25:51.706Z,13.32
2023-06-04T00:26:51.707Z,13.35
2023-06-04T00:27:51.688Z,13.36
2023-06-04T00:28:51.680Z,13.32
2023-06-04T00:29:51.718Z,13.28
2023-06-04T00:30:51.672Z,13.24
2023-06-04T00:31:51.668Z,13.17
2023-06-04T00:32:51.725Z,13.16
2023-06-04T00:33:51.647Z,13.14
2023-06-04T00:34:51.612Z,13.13
2023-06-04T00:35:51.623Z,13.10
2023-06-04T00:36:51.622Z,13.09
2023-06-04T00:37:51.562Z,13.09
2023-06-04T00:38:51.563Z,13.07
2023-06-04T00:39:51.578Z,13.06
2023-06-04T00:40:51.574Z,13.04
2023-06-04T00:41:51.526Z,13.03
2023-06-04T00:42:51.517Z,13.01
2023-06-04T00:43:51.541Z,13.03
2023-06-04T00:44:51.500Z,13.04
2023-06-04T00:45:51.528Z,13.06
2023-06-04T00:46:51.524Z,13.06
2023-06-04T00:47:51.513Z,13.03
2023-06-04T00:48:51.453Z,12.99
2023-06-04T00:49:51.481Z,12.96
2023-06-04T00:50:51.447Z,12.96
2023-06-04T00:51:51.560Z,12.94
2023-06-04T00:52:51.425Z,12.92
2023-06-04T00:53:51.463Z,12.88
2023-06-04T00:54:51.392Z,12.84
2023-06-04T00:55:51.382Z,12.80
2023-06-04T00:56:51.400Z,12.74
2023-06-04T00:57:51.356Z,12.67
2023-06-04T00:58:51.353Z,12.62
2023-06-04T00:59:51.345Z,12.59
2023-06-04T01:00:51.339Z,12.61
2023-06-04T01:01:51.310Z,12.59
2023-06-04T01:02:51.335Z,12.59
2023-06-04T01:03:51.339Z,12.59
2023-06-04T01:04:51.268Z,12.58
2023-06-04T01:05:51.251Z,12.62
2023-06-04T01:06:51.254Z,12.62
2023-06-04T01:07:51.244Z,12.63
2023-06-04T01:08:51.243Z,12.66
2023-06-04T01:09:51.237Z,12.67
2023-06-04T01:10:51.200Z,12.63
2023-06-04T01:11:51.206Z,12.63
2023-06-04T01:12:51.188Z,12.61
2023-06-04T01:13:51.196Z,12.56
2023-06-04T01:14:51.197Z,12.52
2023-06-04T01:15:51.171Z,12.51
2023-06-04T01:16:51.210Z,12.44
2023-06-04T01:17:51.153Z,12.40
2023-06-04T01:18:51.134Z,12.34
2023-06-04T01:19:51.129Z,12.31
2023-06-04T01:20:51.086Z,12.26
2023-06-04T01:21:51.094Z,12.22
2023-06-04T01:22:51.080Z,12.16
2023-06-04T01:23:51.103Z,12.13
2023-06-04T01:24:51.059Z,12.12
2023-06-04T01:25:51.088Z,12.15
2023-06-04T01:26:51.097Z,12.16
2023-06-04T01:27:51.050Z,12.16
2023-06-04T01:28:51.012Z,12.19
2023-06-04T01:29:50.999Z,12.19
2023-06-04T01:30:51.015Z,12.21
2023-06-04T01:31:51.106Z,12.22
2023-06-04T01:32:50.995Z,12.23
2023-06-04T01:33:50.956Z,12.23
2023-06-04T01:34:50.951Z,12.25
2023-06-04T01:35:50.950Z,12.21
2023-06-04T01:36:50.924Z,12.15
2023-06-04T01:37:50.908Z,12.07
2023-06-04T01:38:50.910Z,11.98
2023-06-04T01:39:50.893Z,11.93
2023-06-04T01:40:50.877Z,11.87
2023-06-04T01:41:50.857Z,11.81
2023-06-04T01:42:50.845Z,11.82
2023-06-04T01:43:50.851Z,11.82
2023-06-04T01:44:50.843Z,11.84
2023-06-04T01:45:50.812Z,11.87
2023-06-04T01:46:50.874Z,11.88
2023-06-04T01:48:50.871Z,11.90
2023-06-04T01:49:50.809Z,11.90
2023-06-04T01:50:50.777Z,11.93
2023-06-04T01:51:50.751Z,11.88
2023-06-04T01:52:50.766Z,11.85
2023-06-04T01:53:50.733Z,11.82
2023-06-04T01:54:50.727Z,11.82
2023-06-04T01:55:50.728Z,11.79
2023-06-04T01:56:50.721Z,11.79
2023-06-04T01:57:50.720Z,11.84
2023-06-04T01:58:50.695Z,11.84
2023-06-04T01:59:50.677Z,11.87
2023-06-04T02:00:50.680Z,11.87
2023-06-04T02:01:50.695Z,11.85
2023-06-04T02:02:50.744Z,11.87
2023-06-04T02:03:50.671Z,11.85
2023-06-04T02:04:50.617Z,11.84
2023-06-04T02:05:50.606Z,11.82
2023-06-04T02:06:50.615Z,11.81
2023-06-04T02:07:50.569Z,11.79
2023-06-04T02:08:50.582Z,11.78
2023-06-04T02:09:50.553Z,11.77
2023-06-04T02:10:50.561Z,11.77
2023-06-04T02:11:50.520Z,11.75
2023-06-04T02:12:50.528Z,11.75
2023-06-04T02:13:50.533Z,11.75
2023-06-04T02:14:50.503Z,11.74
2023-06-04T02:15:50.506Z,11.72
2023-06-04T02:16:50.560Z,11.72
2023-06-04T02:17:50.503Z,11.69
2023-06-04T02:18:50.491Z,11.69
2023-06-04T02:19:50.449Z,11.70
2023-06-04T02:20:50.443Z,11.64
2023-06-04T02:21:50.417Z,11.56
2023-06-04T02:22:50.423Z,11.53
2023-06-04T02:23:50.428Z,11.51
2023-06-04T02:24:50.400Z,11.51
2023-06-04T02:25:50.409Z,11.51
2023-06-04T02:26:50.401Z,11.48
2023-06-04T02:27:50.359Z,11.46
2023-06-04T02:28:50.360Z,11.46
2023-06-04T02:29:50.343Z,11.45
2023-06-04T02:30:50.337Z,11.46
2023-06-04T02:31:50.331Z,11.48
2023-06-04T02:32:52.691Z,11.46
2023-06-04T02:33:50.282Z,11.48
2023-06-04T02:34:50.291Z,11.49
2023-06-04T02:35:50.278Z,11.51
2023-06-04T02:36:50.289Z,11.48
2023-06-04T02:37:50.260Z,11.49
2023-06-04T02:38:50.241Z,11.49
2023-06-04T02:39:50.241Z,11.48
2023-06-04T02:40:50.246Z,11.46
2023-06-04T02:41:50.213Z,11.46
2023-06-04T02:42:50.198Z,11.45
2023-06-04T02:43:50.228Z,11.44
2023-06-04T02:44:50.168Z,11.42
2023-06-04T02:45:50.177Z,11.39
2023-06-04T02:46:50.156Z,11.36
2023-06-04T02:47:50.212Z,11.30
2023-06-04T02:48:50.137Z,11.27
2023-06-04T02:49:50.128Z,11.24
2023-06-04T02:50:50.093Z,11.23
2023-06-04T02:51:50.093Z,11.21
2023-06-04T02:52:50.105Z,11.23
2023-06-04T02:53:50.094Z,11.20
2023-06-04T02:54:50.063Z,11.21
2023-06-04T02:55:50.057Z,11.20
2023-06-04T02:56:50.060Z,11.19
2023-06-04T02:57:50.050Z,11.19
2023-06-04T02:58:50.032Z,11.19
2023-06-04T02:59:49.991Z,11.21
2023-06-04T03:00:50.029Z,11.20
2023-06-04T03:01:50.042Z,11.20
2023-06-04T03:02:50.147Z,11.20
2023-06-04T03:03:49.980Z,11.17
2023-06-04T03:04:49.951Z,11.17
2023-06-04T03:05:49.929Z,11.19
2023-06-04T03:06:49.910Z,11.17
2023-06-04T03:07:49.922Z,11.17
2023-06-04T03:08:49.931Z,11.16
2023-06-04T03:09:49.899Z,11.13
2023-06-04T03:10:49.906Z,11.13
2023-06-04T03:11:49.876Z,11.16
2023-06-04T03:12:49.860Z,11.17
2023-06-04T03:13:49.870Z,11.17
2023-06-04T03:14:49.861Z,11.17
2023-06-04T03:15:49.922Z,11.17
2023-06-04T03:16:49.814Z,11.17
2023-06-04T03:17:49.834Z,11.19
2023-06-04T03:18:49.798Z,11.21
2023-06-04T03:19:49.790Z,11.23
2023-06-04T03:20:49.770Z,11.21
2023-06-04T03:21:49.752Z,11.24
2023-06-04T03:22:49.758Z,11.27
2023-06-04T03:23:49.822Z,11.27
2023-06-04T03:24:49.750Z,11.27
2023-06-04T03:25:49.725Z,11.31
2023-06-04T03:26:49.734Z,11.33
2023-06-04T03:27:49.717Z,11.33
2023-06-04T03:28:49.689Z,11.33
2023-06-04T03:29:49.675Z,11.33
2023-06-04T03:30:49.744Z,11.35
2023-06-04T03:31:49.674Z,11.36
2023-06-04T03:32:49.715Z,11.36
2023-06-04T03:33:49.637Z,11.35
2023-06-04T03:34:49.652Z,11.35
2023-06-04T03:35:49.603Z,11.33
2023-06-04T03:36:49.610Z,11.35
2023-06-04T03:37:49.598Z,11.35
2023-06-04T03:38:49.568Z,11.36
2023-06-04T03:39:49.562Z,11.38
2023-06-04T03:40:49.564Z,11.39
2023-06-04T03:41:49.539Z,11.41
2023-06-04T03:42:49.533Z,11.41
2023-06-04T03:43:49.525Z,11.45
2023-06-04T03:44:49.516Z,11.45
2023-06-04T03:45:49.524Z,11.46
2023-06-04T03:46:49.533Z,11.46
2023-06-04T03:47:49.511Z,11.48
2023-06-04T03:48:49.472Z,11.48
2023-06-04T03:49:49.455Z,11.49
2023-06-04T03:50:49.460Z,11.48
2023-06-04T03:51:49.427Z,11.49
2023-06-04T03:52:49.450Z,11.48
2023-06-04T03:53:49.394Z,11.48
2023-06-04T03:54:49.393Z,11.46
2023-06-04T03:55:49.413Z,11.46
2023-06-04T03:56:49.380Z,11.44
2023-06-04T03:57:49.348Z,11.45
2023-06-04T03:58:49.347Z,11.45
2023-06-04T03:59:49.326Z,11.44
2023-06-04T04:00:49.328Z,11.41
2023-06-04T04:01:49.407Z,11.39
2023-06-04T04:02:49.377Z,11.36
2023-06-04T04:03:49.457Z,11.31
2023-06-04T04:04:49.278Z,11.31
2023-06-04T04:05:49.271Z,11.30
2023-06-04T04:06:49.262Z,11.30
2023-06-04T04:07:49.238Z,11.30
2023-06-04T04:08:49.230Z,11.31
2023-06-04T04:09:49.235Z,11.30
2023-06-04T04:10:49.252Z,11.28
2023-06-04T04:11:49.211Z,11.28
2023-06-04T04:12:49.331Z,11.28
2023-06-04T04:13:49.205Z,11.27
2023-06-04T04:14:49.211Z,11.27
2023-06-04T04:15:49.191Z,11.28
2023-06-04T04:16:49.254Z,11.28
2023-06-04T04:17:49.206Z,11.27
2023-06-04T04:18:49.132Z,11.24
2023-06-04T04:19:49.122Z,11.23
2023-06-04T04:20:49.108Z,11.24
2023-06-04T04:21:49.098Z,11.24
2023-06-04T04:22:51.372Z,11.26
2023-06-04T04:23:49.122Z,11.27
2023-06-04T04:24:49.064Z,11.30
2023-06-04T04:25:49.045Z,11.30
2023-06-04T04:26:49.051Z,11.30
2023-06-04T04:27:49.027Z,11.31
2023-06-04T04:28:49.046Z,11.33
2023-06-04T04:29:49.010Z,11.36
2023-06-04T04:30:49.038Z,11.38
2023-06-04T04:31:48.986Z,11.44
2023-06-04T04:32:49.002Z,11.45
2023-06-04T04:33:48.957Z,11.45
2023-06-04T04:34:48.964Z,11.45
2023-06-04T04:35:48.955Z,11.46
2023-06-04T04:36:48.925Z,11.48
2023-06-04T04:37:48.942Z,11.46
2023-06-04T04:38:48.893Z,11.48
2023-06-04T04:39:48.911Z,11.49
2023-06-04T04:40:48.882Z,11.51
2023-06-04T04:41:48.856Z,11.53
2023-06-04T04:42:48.863Z,11.54
2023-06-04T04:43:48.858Z,11.54
2023-06-04T04:44:48.855Z,11.54
2023-06-04T04:45:48.836Z,11.53
2023-06-04T04:46:48.964Z,11.49
2023-06-04T04:47:48.847Z,11.46
2023-06-04T04:48:48.821Z,11.45
2023-06-04T04:49:50.406Z,11.46
2023-06-04T04:50:48.785Z,11.51
2023-06-04T04:51:48.828Z,11.53
2023-06-04T04:52:48.753Z,11.54
2023-06-04T04:53:48.778Z,11.57
2023-06-04T04:54:48.783Z,11.59
2023-06-04T04:55:48.741Z,11.60
2023-06-04T04:56:50.134Z,11.63
2023-06-04T04:57:48.679Z,11.63
2023-06-04T04:58:48.697Z,11.67
2023-06-04T04:59:48.674Z,11.69
2023-06-04T05:00:48.679Z,11.70
2023-06-04T05:01:48.731Z,11.70
2023-06-04T05:02:48.651Z,11.74
2023-06-04T05:03:48.640Z,11.75
2023-06-04T05:04:48.614Z,11.78
2023-06-04T05:05:48.611Z,11.79
2023-06-04T05:06:48.602Z,11.81
2023-06-04T05:07:48.600Z,11.84
2023-06-04T05:08:48.576Z,11.84
2023-06-04T05:09:48.582Z,11.84
2023-06-04T05:10:48.557Z,11.84
2023-06-04T05:11:48.549Z,11.84
2023-06-04T05:12:48.529Z,11.85
2023-06-04T05:13:48.517Z,11.84
2023-06-04T05:14:48.503Z,11.85
2023-06-04T05:15:48.509Z,11.85
2023-06-04T05:16:48.545Z,11.88
2023-06-04T05:17:48.529Z,11.90
2023-06-04T05:18:48.453Z,11.93
2023-06-04T05:19:48.500Z,11.88
2023-06-04T05:20:48.442Z,11.90
2023-06-04T05:21:48.419Z,11.90
2023-06-04T05:22:48.407Z,11.94
2023-06-04T05:23:48.455Z,11.97
2023-06-04T05:24:48.410Z,11.97
2023-06-04T05:25:48.396Z,12.00
2023-06-04T05:26:48.368Z,12.03
2023-06-04T05:27:48.398Z,12.03
2023-06-04T05:28:48.365Z,12.05
2023-06-04T05:29:48.348Z,12.04
2023-06-04T05:30:48.323Z,12.04
2023-06-04T05:31:48.365Z,12.05
2023-06-04T05:32:48.327Z,12.05
2023-06-04T05:33:48.300Z,12.05
2023-06-04T05:34:48.293Z,12.04
2023-06-04T05:35:48.279Z,12.07
2023-06-04T05:36:48.269Z,12.08
2023-06-04T05:37:48.280Z,12.07
2023-06-04T05:38:48.272Z,12.11
2023-06-04T05:39:48.245Z,12.15
2023-06-04T05:40:48.224Z,12.19
2023-06-04T05:41:48.204Z,12.23
2023-06-04T05:42:48.204Z,12.26
2023-06-04T05:43:48.180Z,12.33
2023-06-04T05:44:48.170Z,12.36
2023-06-04T05:45:48.199Z,12.37
2023-06-04T05:46:48.141Z,12.41
2023-06-04T05:47:48.186Z,12.44
2023-06-04T05:48:48.135Z,12.49
2023-06-04T05:49:48.144Z,12.52
2023-06-04T05:50:48.107Z,12.54
2023-06-04T05:51:48.113Z,12.58
2023-06-04T05:52:48.103Z,12.62
2023-06-04T05:53:48.088Z,12.69
2023-06-04T05:54:48.066Z,12.74
2023-06-04T05:55:48.048Z,12.79
2023-06-04T05:56:48.055Z,12.85
2023-06-04T05:57:48.047Z,12.89
2023-06-04T05:58:48.030Z,12.92
2023-06-04T05:59:48.009Z,12.96
2023-06-04T06:00:47.994Z,12.99
2023-06-04T06:01:47.999Z,13.03
2023-06-04T06:02:48.019Z,13.10
2023-06-04T06:03:48.023Z,13.13
2023-06-04T06:04:47.966Z,13.17
2023-06-04T06:05:47.954Z,13.31
2023-06-04T06:06:47.920Z,13.39
2023-06-04T06:07:48.032Z,13.44
2023-06-04T06:08:47.894Z,13.48
2023-06-04T06:09:47.895Z,13.53
2023-06-04T06:10:47.914Z,13.63
2023-06-04T06:11:47.884Z,13.69
2023-06-04T06:12:48.004Z,13.71
2023-06-04T06:13:47.848Z,13.76
2023-06-04T06:14:47.840Z,13.80
2023-06-04T06:15:47.900Z,13.84
2023-06-04T06:16:47.817Z,13.87
2023-06-04T06:17:47.824Z,13.90
2023-06-04T06:18:47.814Z,13.96
2023-06-04T06:19:47.798Z,13.99
2023-06-04T06:20:47.768Z,14.02
2023-06-04T06:21:47.760Z,14.06
2023-06-04T06:22:47.758Z,14.12
2023-06-04T06:23:47.785Z,14.17
2023-06-04T06:24:47.716Z,14.24
2023-06-04T06:25:47.720Z,14.31
2023-06-04T06:26:47.707Z,14.39
2023-06-04T06:27:47.697Z,14.46
2023-06-04T06:28:47.666Z,14.52
2023-06-04T06:29:47.690Z,14.61
2023-06-04T06:30:47.682Z,14.69
2023-06-04T06:31:47.710Z,14.74
2023-06-04T06:32:47.752Z,14.78
2023-06-04T06:33:47.632Z,14.85
2023-06-04T06:34:47.622Z,14.91
2023-06-04T06:35:47.776Z,14.98
2023-06-04T06:36:47.599Z,15.05
2023-06-04T06:37:47.584Z,15.19
2023-06-04T06:38:47.580Z,15.35
2023-06-04T06:39:47.576Z,15.52
2023-06-04T06:40:47.553Z,15.70
2023-06-04T06:41:47.556Z,15.88
2023-06-04T06:42:47.568Z,15.91
2023-06-04T06:43:47.540Z,15.92
2023-06-04T06:44:47.516Z,16.01
2023-06-04T06:45:47.513Z,16.16
2023-06-04T06:46:47.548Z,16.26
2023-06-04T06:47:47.559Z,16.33
2023-06-04T06:48:47.452Z,16.40
2023-06-04T06:49:47.447Z,16.44
2023-06-04T06:50:47.446Z,16.48
2023-06-04T06:51:47.442Z,16.52
2023-06-04T06:52:47.441Z,16.59
2023-06-04T06:53:47.398Z,16.65
2023-06-04T06:54:47.392Z,16.69
2023-06-04T06:55:47.425Z,16.75
2023-06-04T06:56:47.361Z,16.81
2023-06-04T06:57:47.374Z,16.90
2023-06-04T06:58:47.347Z,16.95
2023-06-04T06:59:47.355Z,17.00
2023-06-04T07:00:47.484Z,17.09
2023-06-04T07:01:47.432Z,17.17
2023-06-04T07:02:47.365Z,17.27
2023-06-04T07:03:47.306Z,17.38
2023-06-04T07:04:47.276Z,17.43
2023-06-04T07:05:47.270Z,17.49
2023-06-04T07:06:47.287Z,17.53
2023-06-04T07:07:47.261Z,17.55
2023-06-04T07:08:47.254Z,17.58
2023-06-04T07:09:47.227Z,17.62
2023-06-04T07:10:47.246Z,17.60
2023-06-04T07:11:47.229Z,17.57
2023-06-04T07:12:47.203Z,17.58
2023-06-04T07:13:47.210Z,17.62
2023-06-04T07:14:47.177Z,17.68
2023-06-04T07:15:47.193Z,17.73
2023-06-04T07:16:47.166Z,17.77
2023-06-04T07:17:47.218Z,17.84
2023-06-04T07:18:47.122Z,17.89
2023-06-04T07:19:47.131Z,17.91
2023-06-04T07:20:47.121Z,17.91
2023-06-04T07:21:47.098Z,17.99
2023-06-04T07:22:47.090Z,18.05
2023-06-04T07:23:47.145Z,18.10
2023-06-04T07:24:47.061Z,18.16
2023-06-04T07:25:47.052Z,18.20
2023-06-04T07:26:47.054Z,18.25
2023-06-04T07:27:47.062Z,18.32
2023-06-04T07:28:47.027Z,18.36
2023-06-04T07:29:47.038Z,18.39
2023-06-04T07:30:47.076Z,18.44
2023-06-04T07:31:47.091Z,18.49
2023-06-04T07:32:47.020Z,18.51
2023-06-04T07:33:47.013Z,18.49
2023-06-04T07:34:46.962Z,18.53
2023-06-04T07:35:46.956Z,18.57
2023-06-04T07:36:46.946Z,18.54
2023-06-04T07:37:46.962Z,18.56
2023-06-04T07:38:46.924Z,18.60
2023-06-04T07:39:46.919Z,18.65
2023-06-04T07:40:46.925Z,18.69
2023-06-04T07:41:46.904Z,18.69
2023-06-04T07:42:46.888Z,18.69
2023-06-04T07:43:46.880Z,18.71
2023-06-04T07:44:46.882Z,18.74
2023-06-04T07:45:46.903Z,18.76
2023-06-04T07:46:46.856Z,18.76
2023-06-04T07:47:46.865Z,18.79
2023-06-04T07:48:46.829Z,18.78
2023-06-04T07:49:58.397Z,18.79
2023-06-04T07:50:46.828Z,18.82
2023-06-04T07:51:46.799Z,18.89
2023-06-04T07:52:46.801Z,18.89
2023-06-04T07:53:46.794Z,18.91
2023-06-04T07:54:46.773Z,18.93
2023-06-04T07:55:46.771Z,18.96
2023-06-04T07:56:46.745Z,19.01
2023-06-04T07:57:46.747Z,19.07
2023-06-04T07:58:46.732Z,19.13
2023-06-04T07:59:46.713Z,19.13
2023-06-04T08:00:46.709Z,19.15
2023-06-04T08:01:46.700Z,19.16
2023-06-04T08:02:46.831Z,19.17
2023-06-04T08:03:46.782Z,19.24
2023-06-04T08:04:46.743Z,19.30
2023-06-04T08:05:46.667Z,19.42
2023-06-04T08:06:46.646Z,19.47
2023-06-04T08:07:46.641Z,19.55
2023-06-04T08:08:46.994Z,19.60
2023-06-04T08:09:46.733Z,19.62
2023-06-04T08:10:46.616Z,19.70
2023-06-04T08:11:46.669Z,19.80
2023-06-04T08:12:46.600Z,19.90
2023-06-04T08:13:46.583Z,20.00
2023-06-04T08:14:46.588Z,20.04
2023-06-04T08:15:46.563Z,20.02
2023-06-04T08:16:46.684Z,20.01
2023-06-04T08:17:46.578Z,19.94
2023-06-04T08:18:46.536Z,19.92
2023-06-04T08:19:46.523Z,19.89
2023-06-04T08:20:46.508Z,19.87
2023-06-04T08:21:46.501Z,19.86
2023-06-04T08:22:46.532Z,19.83
2023-06-04T08:23:46.523Z,19.80
2023-06-04T08:24:46.466Z,19.82
2023-06-04T08:25:46.470Z,19.85
2023-06-04T08:26:46.446Z,19.87
2023-06-04T08:27:46.440Z,19.86
2023-06-04T08:28:46.415Z,19.87
2023-06-04T08:29:46.456Z,19.87
2023-06-04T08:30:46.433Z,19.87
2023-06-04T08:31:46.398Z,19.95
2023-06-04T08:32:46.466Z,20.02
2023-06-04T08:33:46.384Z,20.15
2023-06-04T08:34:46.368Z,20.22
2023-06-04T08:35:46.377Z,20.33
2023-06-04T08:36:46.339Z,20.44
2023-06-04T08:37:46.320Z,20.58
2023-06-04T08:38:50.926Z,20.69
2023-06-04T08:39:46.302Z,20.75
2023-06-04T08:40:46.320Z,20.73
2023-06-04T08:41:46.279Z,20.68
2023-06-04T08:42:46.276Z,20.61
2023-06-04T08:43:46.260Z,20.56
2023-06-04T08:44:46.270Z,20.57
2023-06-04T08:45:46.296Z,20.60
2023-06-04T08:46:46.223Z,20.61
2023-06-04T08:47:46.247Z,20.54
2023-06-04T08:48:46.210Z,20.50
2023-06-04T08:49:46.204Z,20.44
2023-06-04T08:50:46.176Z,20.42
2023-06-04T08:51:46.180Z,20.48
2023-06-04T08:52:46.162Z,20.48
2023-06-04T08:53:46.156Z,20.48
2023-06-04T08:54:46.152Z,20.48
2023-06-04T08:55:46.138Z,20.44
2023-06-04T08:56:46.134Z,20.34
2023-06-04T08:57:46.125Z,20.30
2023-06-04T08:58:46.093Z,20.34
2023-06-04T08:59:46.088Z,20.42
2023-06-04T09:00:46.093Z,20.48
2023-06-04T09:01:46.240Z,20.54
2023-06-04T09:02:46.139Z,20.61
2023-06-04T09:03:46.096Z,20.72
2023-06-04T09:04:46.030Z,20.81
2023-06-04T09:05:46.020Z,20.90
2023-06-04T09:06:46.028Z,20.91
2023-06-04T09:07:46.004Z,20.90
2023-06-04T09:08:53.734Z,20.88
2023-06-04T09:09:46.515Z,20.90
2023-06-04T09:10:45.944Z,20.87
2023-06-04T09:11:45.970Z,20.87
2023-06-04T09:12:45.950Z,20.88
2023-06-04T09:13:45.933Z,20.96
2023-06-04T09:14:45.927Z,20.96
2023-06-04T09:15:45.981Z,20.98
2023-06-04T09:16:45.898Z,21.00
2023-06-04T09:17:45.964Z,21.00
2023-06-04T09:18:45.861Z,20.96
2023-06-04T09:19:45.878Z,20.96
2023-06-04T09:20:45.873Z,21.05
2023-06-04T09:21:45.845Z,21.15
2023-06-04T09:22:45.816Z,21.22
2023-06-04T09:23:45.892Z,21.30
2023-06-04T09:24:45.804Z,21.30
2023-06-04T09:25:47.353Z,21.30
2023-06-04T09:26:45.967Z,21.34
2023-06-04T09:27:45.759Z,21.42
2023-06-04T09:28:45.772Z,21.46
2023-06-04T09:29:45.752Z,21.49
2023-06-04T09:30:45.757Z,21.53
2023-06-04T09:31:45.802Z,21.58
2023-06-04T09:32:45.797Z,21.61
2023-06-04T09:33:45.700Z,21.59
2023-06-04T09:34:45.714Z,21.59
2023-06-04T09:35:45.684Z,21.64
2023-06-04T09:36:45.681Z,21.68
2023-06-04T09:37:45.689Z,21.74
2023-06-04T09:38:45.642Z,21.75
2023-06-04T09:39:45.634Z,21.77
2023-06-04T09:40:45.640Z,21.81
2023-06-04T09:41:45.613Z,21.91
2023-06-04T09:42:45.623Z,22.04
2023-06-04T09:43:45.587Z,22.17
2023-06-04T09:44:45.579Z,22.24
2023-06-04T09:45:45.571Z,22.39
2023-06-04T09:46:45.602Z,22.42
2023-06-04T09:47:45.573Z,22.45
2023-06-04T09:48:45.534Z,22.52
2023-06-04T09:49:45.531Z,22.54
2023-06-04T09:50:45.535Z,22.45
2023-06-04T09:51:45.504Z,22.26
2023-06-04T09:52:45.487Z,22.15
2023-06-04T09:53:45.528Z,22.21
2023-06-04T09:54:45.480Z,22.31
2023-06-04T09:55:45.486Z,22.35
2023-06-04T09:56:45.431Z,22.42
2023-06-04T09:57:45.424Z,22.52
2023-06-04T09:58:45.412Z,22.66
2023-06-04T09:59:45.403Z,22.81
2023-06-04T10:00:45.387Z,22.89
2023-06-04T10:01:45.501Z,22.85
2023-06-04T10:02:45.472Z,22.74
2023-06-04T10:03:45.477Z,22.59
2023-06-04T10:04:45.345Z,22.57
2023-06-04T10:05:45.329Z,22.49
2023-06-04T10:06:45.316Z,22.48
2023-06-04T10:07:45.322Z,22.41
2023-06-04T10:08:45.311Z,22.41
2023-06-04T10:09:45.311Z,22.42
2023-06-04T10:10:45.303Z,22.38
2023-06-04T10:11:45.306Z,22.38
2023-06-04T10:12:45.257Z,22.42
2023-06-04T10:13:45.234Z,22.27
2023-06-04T10:14:45.268Z,22.14
2023-06-04T10:15:45.242Z,22.12
2023-06-04T10:16:45.249Z,22.14
2023-06-04T10:17:45.191Z,22.19
2023-06-04T10:18:45.289Z,22.31
2023-06-04T10:19:45.179Z,22.44
2023-06-04T10:20:45.170Z,22.61
2023-06-04T10:21:45.168Z,22.76
2023-06-04T10:22:45.159Z,22.79
2023-06-04T10:23:45.178Z,22.86
2023-06-04T10:24:45.129Z,22.94
2023-06-04T10:25:45.104Z,22.97
2023-06-04T10:26:45.132Z,22.96
2023-06-04T10:27:45.098Z,22.81
2023-06-04T10:28:45.081Z,22.76
2023-06-04T10:29:45.082Z,22.69
2023-06-04T10:30:45.072Z,22.67
2023-06-04T10:31:45.094Z,22.75
2023-06-04T10:32:45.078Z,22.75
2023-06-04T10:33:45.043Z,22.67
2023-06-04T10:34:45.001Z,22.57
2023-06-04T10:35:44.985Z,22.67
2023-06-04T10:36:44.990Z,22.76
2023-06-04T10:37:44.975Z,22.75
2023-06-04T10:38:44.950Z,22.78
2023-06-04T10:39:44.954Z,22.82
2023-06-04T10:40:44.935Z,22.86
2023-06-04T10:41:44.917Z,22.97
2023-06-04T10:42:44.928Z,23.01
2023-06-04T10:43:44.917Z,23.00
2023-06-04T10:44:44.989Z,23.12
2023-06-04T10:45:44.900Z,23.21
2023-06-04T10:46:45.007Z,23.12
2023-06-04T10:47:44.887Z,23.12
2023-06-04T10:48:44.855Z,23.11
2023-06-04T10:49:44.851Z,23.12
2023-06-04T10:50:44.833Z,23.14
2023-06-04T10:51:45.035Z,23.18
2023-06-04T10:52:44.829Z,23.23
2023-06-04T10:53:44.789Z,23.35
2023-06-04T10:54:44.782Z,23.42
2023-06-04T10:55:44.771Z,23.56
2023-06-04T10:56:44.758Z,23.71
2023-06-04T10:57:44.737Z,23.82
2023-06-04T10:58:44.732Z,23.94
2023-06-04T10:59:44.714Z,24.06
2023-06-04T11:00:44.713Z,24.14
2023-06-04T11:01:44.758Z,24.18
2023-06-04T11:02:44.764Z,24.09
2023-06-04T11:03:44.730Z,24.05
2023-06-04T11:04:44.687Z,23.89
2023-06-04T11:05:44.625Z,23.74
2023-06-04T11:06:44.619Z,23.69
2023-06-04T11:07:44.614Z,23.62
2023-06-04T11:08:44.625Z,23.60
2023-06-04T11:09:44.586Z,23.62
2023-06-04T11:10:44.649Z,23.67
2023-06-04T11:11:44.563Z,23.79
2023-06-04T11:12:44.597Z,23.87
2023-06-04T11:13:44.542Z,23.89
2023-06-04T11:14:44.541Z,23.97
2023-06-04T11:15:44.553Z,24.11
2023-06-04T11:16:44.516Z,24.09
2023-06-04T11:17:44.553Z,24.06
2023-06-04T11:18:44.512Z,24.06
2023-06-04T11:19:44.482Z,24.08
2023-06-04T11:20:44.462Z,24.06
2023-06-04T11:21:44.473Z,23.97
2023-06-04T11:22:44.424Z,23.90
2023-06-04T11:23:44.467Z,23.96
2023-06-04T11:24:44.430Z,24.02
2023-06-04T11:25:44.414Z,24.08
2023-06-04T11:26:53.535Z,23.90
2023-06-04T11:27:44.363Z,23.81
2023-06-04T11:28:44.388Z,23.78
2023-06-04T11:29:44.352Z,23.77
2023-06-04T11:30:44.343Z,23.56
2023-06-04T11:31:44.427Z,23.11
2023-06-04T11:32:44.347Z,22.82
2023-06-04T11:33:44.287Z,22.66
2023-06-04T11:34:44.322Z,22.59
2023-06-04T11:35:44.275Z,22.56
2023-06-04T11:36:44.264Z,22.52
2023-06-04T11:37:44.260Z,22.51
2023-06-04T11:38:44.260Z,22.51
2023-06-04T11:39:44.250Z,22.54
2023-06-04T11:40:44.225Z,22.54
2023-06-04T11:41:44.203Z,22.56
2023-06-04T11:42:44.219Z,22.56
2023-06-04T11:43:44.202Z,22.59
2023-06-04T11:44:44.170Z,22.67
2023-06-04T11:45:44.167Z,22.78
2023-06-04T11:46:44.170Z,22.78
2023-06-04T11:47:44.221Z,22.79
2023-06-04T11:48:44.170Z,22.79
2023-06-04T11:49:44.142Z,22.76
2023-06-04T11:50:44.122Z,22.72
2023-06-04T11:51:44.098Z,22.72
2023-06-04T11:52:44.080Z,22.76
2023-06-04T11:53:44.083Z,22.94
2023-06-04T11:54:44.068Z,23.16
2023-06-04T11:55:44.077Z,23.32
2023-06-04T11:56:44.055Z,23.45
2023-06-04T11:57:44.011Z,23.53
2023-06-04T11:58:44.012Z,23.49
2023-06-04T11:59:44.002Z,23.44
2023-06-04T12:00:43.984Z,23.42
2023-06-04T12:01:44.024Z,23.41
2023-06-04T12:02:44.033Z,23.42
2023-06-04T12:03:44.015Z,23.39
2023-06-04T12:04:43.993Z,23.25
2023-06-04T12:05:43.991Z,23.23
2023-06-04T12:06:48.956Z,23.25
2023-06-04T12:07:43.909Z,23.15
2023-06-04T12:08:43.904Z,23.12
2023-06-04T12:09:43.876Z,23.15
2023-06-04T12:10:43.914Z,23.19
2023-06-04T12:11:43.854Z,23.22
2023-06-04T12:12:43.861Z,23.29
2023-06-04T12:13:43.841Z,23.35
2023-06-04T12:14:43.867Z,23.39
2023-06-04T12:15:43.821Z,23.39
2023-06-04T12:16:43.857Z,23.32
2023-06-04T12:17:43.826Z,23.34
2023-06-04T12:18:43.790Z,23.39
2023-06-04T12:19:43.801Z,23.37
2023-06-04T12:20:44.009Z,23.32
2023-06-04T12:21:43.765Z,23.37
2023-06-04T12:22:43.776Z,23.26
2023-06-04T12:23:43.821Z,23.19
2023-06-04T12:24:43.724Z,23.18
2023-06-04T12:25:43.718Z,23.18
2023-06-04T12:26:43.972Z,23.23
2023-06-04T12:27:43.673Z,23.32
2023-06-04T12:28:43.685Z,23.37
2023-06-04T12:29:43.654Z,23.42
2023-06-04T12:30:43.647Z,23.60
2023-06-04T12:31:44.633Z,23.78
2023-06-04T12:32:43.622Z,23.89
2023-06-04T12:33:43.612Z,23.86
2023-06-04T12:34:43.599Z,23.74
2023-06-04T12:35:43.587Z,23.77
2023-06-04T12:36:43.574Z,23.79
2023-06-04T12:37:43.584Z,23.75
2023-06-04T12:38:43.572Z,23.68
2023-06-04T12:39:43.536Z,23.59
2023-06-04T12:40:43.544Z,23.52
2023-06-04T12:41:43.510Z,23.41
2023-06-04T12:42:43.566Z,23.32
2023-06-04T12:43:43.501Z,23.32
2023-06-04T12:44:43.540Z,23.31
2023-06-04T12:45:43.507Z,23.26
2023-06-04T12:46:43.509Z,23.22
2023-06-04T12:47:43.484Z,23.23
2023-06-04T12:48:43.455Z,23.29
2023-06-04T12:49:43.433Z,23.29
2023-06-04T12:50:43.412Z,23.29
2023-06-04T12:51:43.422Z,23.22
2023-06-04T12:52:43.397Z,23.22
2023-06-04T12:53:43.545Z,23.29